createdAt,value
2023-02-15T00:01:07.155Z,103352.09
2023-02-15T00:03:08.941Z,103354.13
2023-02-15T00:05:10.470Z,103356.13
2023-02-15T00:07:13.151Z,103358.06
2023-02-15T00:09:14.716Z,103356.53
2023-02-15T00:11:18.796Z,103354.81
2023-02-15T00:13:20.638Z,103360.25
2023-02-15T00:15:23.742Z,103360.38
2023-02-15T00:17:28.642Z,103351.66
2023-02-15T00:19:30.204Z,103351.81
2023-02-15T00:21:33.353Z,103343.84
2023-02-15T00:23:35.447Z,103340.38
2023-02-15T00:25:37.303Z,103342.31
2023-02-15T00:27:38.860Z,103337.88
2023-02-15T00:29:40.400Z,103332.63
2023-02-15T00:31:43.536Z,103338.09
2023-02-15T00:33:45.099Z,103332.91
2023-02-15T00:35:47.153Z,103334.72
2023-02-15T00:37:48.708Z,103327.63
2023-02-15T00:39:50.293Z,103324.06
2023-02-15T00:41:52.149Z,103320.63
2023-02-15T00:43:54.069Z,103320.63
2023-02-15T00:45:56.258Z,103318.88
2023-02-15T00:47:59.258Z,103318.88
2023-02-15T00:50:00.821Z,103312.63
2023-02-15T00:52:02.667Z,103309.09
2023-02-15T00:54:04.486Z,103305.56
2023-02-15T00:56:06.165Z,103310.06
2023-02-15T00:58:08.846Z,103308.31
2023-02-15T01:00:11.832Z,103299.50
2023-02-15T01:02:13.478Z,103311.00
2023-02-15T01:04:16.519Z,103312.81
2023-02-15T01:06:18.750Z,103312.81
2023-02-15T01:08:20.382Z,103309.38
2023-02-15T01:10:22.309Z,103307.72
2023-02-15T01:12:24.240Z,103308.59
2023-02-15T01:14:25.867Z,103306.91
2023-02-15T01:16:29.656Z,103307.84
2023-02-15T01:18:32.573Z,103314.16
2023-02-15T01:20:38.393Z,103303.41
2023-02-15T01:22:39.951Z,103311.47
2023-02-15T01:24:41.507Z,103304.47
2023-02-15T01:26:43.126Z,103301.69
2023-02-15T01:28:45.144Z,103302.66
2023-02-15T01:30:46.967Z,103303.63
2023-02-15T01:32:48.869Z,103299.19
2023-02-15T01:34:50.470Z,103290.25
2023-02-15T01:36:53.505Z,103293.06
2023-02-15T01:38:55.084Z,103292.28
2023-02-15T01:40:59.235Z,103287.00
2023-02-15T01:43:01.329Z,103284.22
2023-02-15T01:45:05.382Z,103283.34
2023-02-15T01:47:11.046Z,103275.41
2023-02-15T01:49:16.370Z,103278.09
2023-02-15T01:51:25.264Z,103275.47
2023-02-15T01:53:35.047Z,103274.59
2023-02-15T01:55:41.300Z,103276.53
2023-02-15T01:57:44.851Z,103272.22
2023-02-15T01:59:51.909Z,103261.66
2023-02-15T02:01:58.779Z,103261.66
2023-02-15T02:04:08.275Z,103262.63
2023-02-15T02:06:10.490Z,103255.53
2023-02-15T02:08:12.277Z,103250.34
2023-02-15T02:10:17.596Z,103251.28
2023-02-15T02:12:21.859Z,103245.16
2023-02-15T02:14:25.155Z,103242.56
2023-02-15T02:16:35.576Z,103241.69
2023-02-15T02:18:47.037Z,103237.28
2023-02-15T02:21:27.011Z,103229.22
2023-02-15T02:23:42.304Z,103232.97
2023-02-15T02:26:25.508Z,103224.03
2023-02-15T02:28:58.945Z,103219.72
2023-02-15T02:31:25.674Z,103220.69
2023-02-15T02:33:53.760Z,103214.44
2023-02-15T02:36:04.619Z,103205.63
2023-02-15T02:38:13.033Z,103204.00
2023-02-15T02:40:23.833Z,103201.31
2023-02-15T02:42:34.814Z,103201.41
2023-02-15T02:44:43.128Z,103193.44
2023-02-15T02:46:51.904Z,103196.09
2023-02-15T02:48:56.126Z,103198.91
2023-02-15T02:50:57.735Z,103200.72
2023-02-15T02:53:00.271Z,103199.00
2023-02-15T02:55:04.041Z,103194.50
2023-02-15T02:57:09.373Z,103189.22
2023-02-15T02:59:17.963Z,103193.72
2023-02-15T03:01:25.733Z,103194.59
2023-02-15T03:03:33.636Z,103187.56
2023-02-15T03:05:42.534Z,103191.13
2023-02-15T03:07:50.840Z,103184.88
2023-02-15T03:09:54.141Z,103187.69
2023-02-15T03:11:55.889Z,103172.53
2023-02-15T03:13:58.713Z,103177.03
2023-02-15T03:16:03.032Z,103178.84
2023-02-15T03:18:05.761Z,103170.03
2023-02-15T03:20:09.533Z,103176.28
2023-02-15T03:22:19.602Z,103175.41
2023-02-15T03:24:26.257Z,103177.22
2023-02-15T03:26:31.336Z,103170.13
2023-02-15T03:28:37.367Z,103169.25
2023-02-15T03:30:43.826Z,103170.22
2023-02-15T03:32:47.410Z,103164.88
2023-02-15T03:34:49.280Z,103165.81
2023-02-15T03:36:56.282Z,103160.53
2023-02-15T03:39:08.856Z,103166.84
2023-02-15T03:41:12.425Z,103159.78
2023-02-15T03:43:20.918Z,103162.47
2023-02-15T03:45:28.585Z,103158.03
2023-02-15T03:47:35.765Z,103156.31
2023-02-15T03:49:43.815Z,103154.69
2023-02-15T03:51:49.501Z,103154.59
2023-02-15T03:53:53.661Z,103158.31
2023-02-15T03:55:56.813Z,103150.38
2023-02-15T03:57:58.458Z,103155.81
2023-02-15T04:00:01.560Z,103144.31
2023-02-15T04:02:17.859Z,103150.56
2023-02-15T04:04:25.580Z,103156.97
2023-02-15T04:06:27.618Z,103150.06
2023-02-15T04:08:29.323Z,103150.91
2023-02-15T04:10:30.939Z,103150.16
2023-02-15T04:12:34.220Z,103147.56
2023-02-15T04:14:36.297Z,103141.53
2023-02-15T04:16:37.824Z,103138.84
2023-02-15T04:18:41.668Z,103136.16
2023-02-15T04:20:44.934Z,103134.41
2023-02-15T04:22:46.512Z,103133.56
2023-02-15T04:24:48.082Z,103130.97
2023-02-15T04:26:49.657Z,103122.13
2023-02-15T04:28:52.582Z,103126.66
2023-02-15T04:30:54.135Z,103119.56
2023-02-15T04:32:56.264Z,103120.63
2023-02-15T04:34:57.953Z,103124.25
2023-02-15T04:36:59.570Z,103113.72
2023-02-15T04:39:01.788Z,103125.41
2023-02-15T04:41:03.347Z,103118.41
2023-02-15T04:43:05.020Z,103117.53
2023-02-15T04:45:08.972Z,103109.56
2023-02-15T04:47:11.124Z,103115.81
2023-02-15T04:49:12.982Z,103106.91
2023-02-15T04:51:14.687Z,103104.31
2023-02-15T04:53:16.286Z,103104.41
2023-02-15T04:55:17.845Z,103098.97
2023-02-15T04:57:19.645Z,103090.13
2023-02-15T04:59:21.994Z,103094.53
2023-02-15T05:01:24.959Z,103093.75
2023-02-15T05:03:26.652Z,103089.25
2023-02-15T05:05:28.564Z,103084.00
2023-02-15T05:07:30.375Z,103085.81
2023-02-15T05:09:31.954Z,103087.53
2023-02-15T05:11:33.516Z,103078.63
2023-02-15T05:13:35.053Z,103079.59
2023-02-15T05:15:36.809Z,103076.03
2023-02-15T05:17:40.461Z,103084.06
2023-02-15T05:19:42.041Z,103076.97
2023-02-15T05:21:43.749Z,103064.53
2023-02-15T05:23:45.664Z,103070.00
2023-02-15T05:25:48.992Z,103070.84
2023-02-15T05:27:50.705Z,103069.13
2023-02-15T05:29:52.632Z,103076.31
2023-02-15T05:31:54.718Z,103072.75
2023-02-15T05:33:57.776Z,103068.38
2023-02-15T05:36:00.354Z,103074.69
2023-02-15T05:38:03.688Z,103066.63
2023-02-15T05:40:06.355Z,103073.06
2023-02-15T05:42:07.915Z,103068.66
2023-02-15T05:44:09.743Z,103056.09
2023-02-15T05:46:12.819Z,103058.78
2023-02-15T05:48:14.837Z,103051.69
2023-02-15T05:50:18.223Z,103058.84
2023-02-15T05:52:19.847Z,103059.81
2023-02-15T05:54:21.394Z,103056.28
2023-02-15T05:56:23.017Z,103059.06
2023-02-15T05:58:24.704Z,103054.56
2023-02-15T06:00:26.359Z,103057.31
2023-02-15T06:02:27.966Z,103060.97
2023-02-15T06:04:30.024Z,103052.06
2023-02-15T06:06:33.570Z,103048.53
2023-02-15T06:08:36.877Z,103055.69
2023-02-15T06:10:38.438Z,103053.00
2023-02-15T06:12:40.289Z,103062.88
2023-02-15T06:14:41.938Z,103063.75
2023-02-15T06:16:43.496Z,103060.19
2023-02-15T06:18:45.081Z,103055.69
2023-02-15T06:20:47.070Z,103058.38
2023-02-15T06:22:50.287Z,103062.88
2023-02-15T06:24:51.837Z,103062.00
2023-02-15T06:26:53.442Z,103057.63
2023-02-15T06:28:54.996Z,103056.75
2023-02-15T06:30:58.169Z,103056.84
2023-02-15T06:32:59.930Z,103060.56
2023-02-15T06:35:01.679Z,103062.38
2023-02-15T06:37:03.239Z,103064.19
2023-02-15T06:39:06.327Z,103066.88
2023-02-15T06:41:07.998Z,103058.91
2023-02-15T06:43:09.543Z,103067.94
2023-02-15T06:45:12.234Z,103055.47
2023-02-15T06:47:14.072Z,103057.28
2023-02-15T06:49:15.645Z,103056.44
2023-02-15T06:51:17.202Z,103054.72
2023-02-15T06:53:19.055Z,103053.75
2023-02-15T06:55:22.196Z,103047.50
2023-02-15T06:57:23.743Z,103045.69
2023-02-15T06:59:26.129Z,103048.38
2023-02-15T07:01:27.794Z,103045.69
2023-02-15T07:03:29.682Z,103050.13
2023-02-15T07:05:34.859Z,103040.16
2023-02-15T07:07:36.476Z,103046.38
2023-02-15T07:09:38.282Z,103052.53
2023-02-15T07:11:41.205Z,103034.63
2023-02-15T07:13:42.755Z,103039.00
2023-02-15T07:15:44.479Z,103035.31
2023-02-15T07:17:46.024Z,103035.31
2023-02-15T07:19:47.604Z,103030.69
2023-02-15T07:21:49.298Z,103034.16
2023-02-15T07:23:51.245Z,103034.06
2023-02-15T07:25:57.804Z,103023.13
2023-02-15T07:28:03.108Z,103019.50
2023-02-15T07:30:06.366Z,103012.31
2023-02-15T07:32:08.291Z,103010.50
2023-02-15T07:34:10.096Z,103019.22
2023-02-15T07:36:12.008Z,103018.28
2023-02-15T07:38:13.890Z,103019.88
2023-02-15T07:40:17.666Z,103021.50
2023-02-15T07:42:19.552Z,103013.38
2023-02-15T07:44:22.508Z,103021.22
2023-02-15T07:46:24.220Z,103019.31
2023-02-15T07:48:25.907Z,103021.81
2023-02-15T07:50:27.673Z,103022.50
2023-02-15T07:52:29.214Z,103018.75
2023-02-15T07:54:31.474Z,103016.81
2023-02-15T07:56:34.107Z,103016.72
2023-02-15T07:58:36.525Z,103012.03
2023-02-15T08:00:39.739Z,103009.25
2023-02-15T08:02:41.719Z,103006.47
2023-02-15T08:04:43.425Z,103012.50
2023-02-15T08:06:44.934Z,103012.31
2023-02-15T08:08:46.544Z,102999.66
2023-02-15T08:10:48.373Z,102997.72
2023-02-15T08:12:49.960Z,102994.97
2023-02-15T08:14:51.582Z,102989.50
2023-02-15T08:16:56.075Z,102995.63
2023-02-15T08:18:59.165Z,102999.91
2023-02-15T08:21:01.504Z,102996.19
2023-02-15T08:23:03.097Z,102989.75
2023-02-15T08:25:05.209Z,102987.75
2023-02-15T08:27:08.635Z,102987.75
2023-02-15T08:29:10.685Z,102989.16
2023-02-15T08:31:13.967Z,102987.13
2023-02-15T08:33:17.287Z,102990.50
2023-02-15T08:35:18.939Z,102992.13
2023-02-15T08:37:20.662Z,102990.19
2023-02-15T08:39:22.447Z,102981.09
2023-02-15T08:41:26.451Z,102980.88
2023-02-15T08:43:30.263Z,102975.38
2023-02-15T08:45:31.878Z,102978.72
2023-02-15T08:47:33.470Z,102965.94
2023-02-15T08:49:36.543Z,102970.28
2023-02-15T08:51:39.364Z,102970.81
2023-02-15T08:53:42.298Z,102957.28
2023-02-15T08:55:44.078Z,102957.88
2023-02-15T08:57:48.741Z,102956.78
2023-02-15T08:59:50.412Z,102954.75
2023-02-15T09:01:53.037Z,102950.03
2023-02-15T09:03:57.590Z,102949.81
2023-02-15T09:06:02.397Z,102947.78
2023-02-15T09:08:04.271Z,102944.88
2023-02-15T09:10:07.803Z,102949.09
2023-02-15T09:12:09.641Z,102950.72
2023-02-15T09:14:14.262Z,102947.81
2023-02-15T09:16:15.942Z,102945.88
2023-02-15T09:18:17.582Z,102945.66
2023-02-15T09:20:19.258Z,102943.75
2023-02-15T09:22:22.235Z,102943.53
2023-02-15T09:24:23.794Z,102942.25
2023-02-15T09:26:25.788Z,102933.97
2023-02-15T09:28:27.401Z,102933.66
2023-02-15T09:30:29.293Z,102933.44
2023-02-15T09:32:31.369Z,102936.78
2023-02-15T09:34:35.033Z,102925.72
2023-02-15T09:36:39.601Z,102929.88
2023-02-15T09:38:42.761Z,102932.38
2023-02-15T09:40:56.550Z,102940.22
2023-02-15T09:43:13.701Z,102938.06
2023-02-15T09:45:27.370Z,102935.91
2023-02-15T09:47:55.976Z,102937.41
2023-02-15T09:50:07.217Z,102933.53
2023-02-15T09:52:28.815Z,102926.97
2023-02-15T09:54:50.069Z,102929.44
2023-02-15T09:56:56.650Z,102924.69
2023-02-15T09:59:10.087Z,102926.44
2023-02-15T10:01:20.142Z,102923.50
2023-02-15T10:03:35.903Z,102924.16
2023-02-15T10:05:49.122Z,102928.34
2023-02-15T10:08:14.397Z,102924.31
2023-02-15T10:10:26.412Z,102922.28
2023-02-15T10:12:42.436Z,102918.38
2023-02-15T10:15:01.517Z,102914.50
2023-02-15T10:17:13.740Z,102919.78
2023-02-15T10:19:26.237Z,102919.31
2023-02-15T10:21:44.900Z,102915.56
2023-02-15T10:24:05.980Z,102916.31
2023-02-15T10:26:17.601Z,102904.44
2023-02-15T10:28:21.798Z,102915.97
2023-02-15T10:30:34.516Z,102907.66
2023-02-15T10:32:43.268Z,102905.59
2023-02-15T10:34:51.759Z,102907.94
2023-02-15T10:37:11.722Z,102898.53
2023-02-15T10:39:24.299Z,102893.78
2023-02-15T10:41:39.044Z,102887.19
2023-02-15T10:44:04.063Z,102883.06
2023-02-15T10:46:19.152Z,102880.03
2023-02-15T10:48:40.785Z,102869.97
2023-02-15T10:50:50.369Z,102868.91
2023-02-15T10:53:15.146Z,102860.69
2023-02-15T10:55:24.619Z,102851.38
2023-02-15T10:57:40.673Z,102849.31
2023-02-15T10:59:57.860Z,102851.56
2023-02-15T11:02:05.582Z,102846.78
2023-02-15T11:04:33.532Z,102847.16
2023-02-15T11:06:39.021Z,102847.53
2023-02-15T11:08:45.432Z,102849.13
2023-02-15T11:10:52.729Z,102841.44
2023-02-15T11:12:58.142Z,102845.59
2023-02-15T11:15:05.173Z,102844.41
2023-02-15T11:17:11.439Z,102831.63
2023-02-15T11:19:18.424Z,102828.44
2023-02-15T11:21:23.745Z,102834.34
2023-02-15T11:23:27.558Z,102818.75
2023-02-15T11:25:33.007Z,102821.81
2023-02-15T11:27:35.183Z,102825.03
2023-02-15T11:29:42.303Z,102828.06
2023-02-15T11:31:46.421Z,102824.16
2023-02-15T11:33:52.871Z,102821.94
2023-02-15T11:36:00.419Z,102821.44
2023-02-15T11:38:07.320Z,102817.63
2023-02-15T11:40:21.580Z,102810.88
2023-02-15T11:42:26.282Z,102815.06
2023-02-15T11:44:34.420Z,102810.13
2023-02-15T11:46:38.330Z,102804.34
2023-02-15T11:48:40.601Z,102807.53
2023-02-15T11:50:43.692Z,102809.00
2023-02-15T11:52:45.700Z,102810.31
2023-02-15T11:54:52.382Z,102812.66
2023-02-15T11:56:55.580Z,102803.56
2023-02-15T11:59:00.801Z,102807.59
2023-02-15T12:01:10.815Z,102796.66
2023-02-15T12:03:20.942Z,102797.38
2023-02-15T12:05:26.046Z,102803.56
2023-02-15T12:07:32.801Z,102800.00
2023-02-15T12:09:39.778Z,102791.91
2023-02-15T12:11:42.361Z,102796.44
2023-02-15T12:13:58.425Z,102789.03
2023-02-15T12:16:08.350Z,102789.91
2023-02-15T12:18:22.326Z,102800.72
2023-02-15T12:20:30.416Z,102787.22
2023-02-15T12:22:35.463Z,102795.19
2023-02-15T12:24:44.686Z,102779.97
2023-02-15T12:26:58.465Z,102788.56
2023-02-15T12:29:03.223Z,102779.69
2023-02-15T12:31:11.220Z,102775.75
2023-02-15T12:33:18.108Z,102769.22
2023-02-15T12:35:29.912Z,102770.84
2023-02-15T12:37:32.796Z,102760.88
2023-02-15T12:39:34.373Z,102762.56
2023-02-15T12:41:38.421Z,102755.22
2023-02-15T12:43:40.202Z,102748.69
2023-02-15T12:45:42.046Z,102753.81
2023-02-15T12:47:43.666Z,102743.00
2023-02-15T12:50:04.600Z,102740.19
2023-02-15T12:52:26.137Z,102733.53
2023-02-15T12:54:39.999Z,102732.56
2023-02-15T12:56:41.544Z,102730.81
2023-02-15T12:58:43.682Z,102727.16
2023-02-15T13:00:45.719Z,102724.16
2023-02-15T13:02:49.628Z,102724.88
2023-02-15T13:04:52.355Z,102708.66
2023-02-15T13:06:57.229Z,102710.38
2023-02-15T13:09:09.350Z,102704.00
2023-02-15T13:11:12.855Z,102694.16
2023-02-15T13:13:21.236Z,102693.03
2023-02-15T13:15:29.473Z,102691.19
2023-02-15T13:17:33.605Z,102688.38
2023-02-15T13:19:41.083Z,102689.06
2023-02-15T13:21:45.843Z,102684.41
2023-02-15T13:23:51.933Z,102678.84
2023-02-15T13:25:57.588Z,102679.72
2023-02-15T13:28:03.726Z,102674.19
2023-02-15T13:30:17.885Z,102671.47
2023-02-15T13:32:29.422Z,102678.56
2023-02-15T13:34:34.603Z,102671.31
2023-02-15T13:36:45.508Z,102673.03
2023-02-15T13:38:54.576Z,102672.06
2023-02-15T13:41:04.697Z,102662.09
2023-02-15T13:43:21.826Z,102664.38
2023-02-15T13:45:41.272Z,102659.72
2023-02-15T13:47:50.442Z,102646.19
2023-02-15T13:50:11.822Z,102637.09
2023-02-15T13:52:20.917Z,102632.41
2023-02-15T13:54:37.913Z,102634.97
2023-02-15T13:56:53.046Z,102631.25
2023-02-15T13:59:16.646Z,102640.09
2023-02-15T14:01:27.605Z,102638.25
2023-02-15T14:04:00.225Z,102631.72
2023-02-15T14:06:16.235Z,102637.97
2023-02-15T14:08:27.359Z,102633.44
2023-02-15T14:10:39.835Z,102633.28
2023-02-15T14:13:03.826Z,102633.00
2023-02-15T14:15:33.042Z,102632.75
2023-02-15T14:17:48.736Z,102626.31
2023-02-15T14:19:55.250Z,102631.44
2023-02-15T14:22:01.606Z,102632.88
2023-02-15T14:24:18.427Z,102630.91
2023-02-15T14:26:26.745Z,102634.91
2023-02-15T14:28:38.932Z,102634.78
2023-02-15T14:30:45.507Z,102635.47
2023-02-15T14:32:51.676Z,102637.66
2023-02-15T14:34:55.764Z,102636.63
2023-02-15T14:36:58.711Z,102629.94
2023-02-15T14:39:20.144Z,102626.84
2023-02-15T14:41:28.754Z,102624.84
2023-02-15T14:43:43.406Z,102629.25
2023-02-15T14:45:50.764Z,102625.69
2023-02-15T14:48:03.794Z,102631.97
2023-02-15T14:50:54.025Z,102627.28
2023-02-15T14:53:18.399Z,102625.44
2023-02-15T14:55:36.847Z,102627.97
2023-02-15T14:57:38.521Z,102622.84
2023-02-15T14:59:46.297Z,102620.88
2023-02-15T15:01:58.402Z,102621.44
2023-02-15T15:04:04.684Z,102627.84
2023-02-15T15:06:07.036Z,102619.56
2023-02-15T15:08:26.885Z,102615.03
2023-02-15T15:10:39.381Z,102619.56
2023-02-15T15:12:41.469Z,102615.03
2023-02-15T15:14:45.343Z,102605.22
2023-02-15T15:16:50.433Z,102597.09
2023-02-15T15:18:52.677Z,102598.06
2023-02-15T15:20:54.433Z,102601.94
2023-02-15T15:23:40.836Z,102602.63
2023-02-15T15:25:44.586Z,102601.31
2023-02-15T15:27:50.365Z,102603.22
2023-02-15T15:29:53.680Z,102605.34
2023-02-15T15:32:00.723Z,102600.06
2023-02-15T15:34:19.793Z,102604.59
2023-02-15T15:37:02.286Z,102597.63
2023-02-15T15:39:21.878Z,102589.06
2023-02-15T15:41:39.452Z,102592.19
2023-02-15T15:44:08.087Z,102584.22
2023-02-15T15:46:34.127Z,102599.16
2023-02-15T15:48:37.726Z,102599.84
2023-02-15T15:50:41.764Z,102590.47
2023-02-15T15:52:48.601Z,102589.16
2023-02-15T15:54:55.907Z,102580.72
2023-02-15T15:57:03.088Z,102575.03
2023-02-15T15:59:08.481Z,102578.13
2023-02-15T16:01:12.266Z,102585.81
2023-02-15T16:03:17.681Z,102577.09
2023-02-15T16:05:19.576Z,102583.81
2023-02-15T16:07:27.575Z,102582.38
2023-02-15T16:09:29.326Z,102592.00
2023-02-15T16:11:32.315Z,102593.28
2023-02-15T16:13:34.782Z,102596.38
2023-02-15T16:15:44.641Z,102598.47
2023-02-15T16:17:50.623Z,102585.38
2023-02-15T16:19:57.266Z,102588.47
2023-02-15T16:22:01.509Z,102583.50
2023-02-15T16:24:23.223Z,102583.03
2023-02-15T16:26:49.998Z,102579.97
2023-02-15T16:28:52.560Z,102573.41
2023-02-15T16:31:07.568Z,102581.75
2023-02-15T16:33:11.436Z,102577.47
2023-02-15T16:35:17.572Z,102571.47
2023-02-15T16:37:20.860Z,102563.78
2023-02-15T16:39:22.375Z,102572.28
2023-02-15T16:41:27.405Z,102570.97
2023-02-15T16:43:32.854Z,102570.38
2023-02-15T16:45:35.312Z,102567.19
2023-02-15T16:47:42.466Z,102564.75
2023-02-15T16:49:47.461Z,102565.88
2023-02-15T16:51:58.710Z,102568.97
2023-02-15T16:54:06.784Z,102571.19
2023-02-15T16:56:08.602Z,102564.50
2023-02-15T16:58:17.347Z,102573.81
2023-02-15T17:00:21.145Z,102565.50
2023-02-15T17:02:49.392Z,102576.56
2023-02-15T17:05:06.570Z,102570.69
2023-02-15T17:07:18.665Z,102573.91
2023-02-15T17:09:23.776Z,102577.13
2023-02-15T17:11:35.578Z,102575.66
2023-02-15T17:13:37.196Z,102580.56
2023-02-15T17:15:41.014Z,102588.06
2023-02-15T17:17:42.702Z,102580.22
2023-02-15T17:19:50.254Z,102580.50
2023-02-15T17:21:54.999Z,102585.28
2023-02-15T17:24:01.472Z,102587.97
2023-02-15T17:26:14.023Z,102587.50
2023-02-15T17:28:19.247Z,102585.16
2023-02-15T17:30:29.401Z,102579.06
2023-02-15T17:32:32.930Z,102587.41
2023-02-15T17:35:01.115Z,102572.91
2023-02-15T17:37:02.700Z,102568.78
2023-02-15T17:39:19.248Z,102578.56
2023-02-15T17:41:21.120Z,102569.75
2023-02-15T17:43:22.915Z,102575.00
2023-02-15T17:45:29.452Z,102578.69
2023-02-15T17:47:31.103Z,102569.59
2023-02-15T17:49:33.213Z,102574.16
2023-02-15T17:51:36.545Z,102576.72
2023-02-15T17:53:38.658Z,102576.72
2023-02-15T17:55:41.632Z,102576.63
2023-02-15T17:57:43.255Z,102577.47
2023-02-15T17:59:44.926Z,102581.00
2023-02-15T18:01:48.899Z,102575.50
2023-02-15T18:03:52.024Z,102570.09
2023-02-15T18:05:54.026Z,102570.00
2023-02-15T18:07:55.906Z,102574.38
2023-02-15T18:09:57.499Z,102566.19
2023-02-15T18:12:01.062Z,102562.50
2023-02-15T18:14:02.896Z,102576.81
2023-02-15T18:16:04.834Z,102560.66
2023-02-15T18:18:09.529Z,102559.66
2023-02-15T18:20:20.640Z,102553.31
2023-02-15T18:22:22.430Z,102552.44
2023-02-15T18:24:26.461Z,102547.91
2023-02-15T18:26:28.981Z,102547.91
2023-02-15T18:28:32.132Z,102538.00
2023-02-15T18:30:34.281Z,102536.25
2023-02-15T18:32:38.257Z,102538.84
2023-02-15T18:34:42.855Z,102534.44
2023-02-15T18:36:45.307Z,102540.53
2023-02-15T18:38:47.375Z,102539.72
2023-02-15T18:40:48.966Z,102529.75
2023-02-15T18:42:50.685Z,102532.34
2023-02-15T18:44:56.673Z,102531.38
2023-02-15T18:46:58.520Z,102532.59
2023-02-15T18:49:00.140Z,102530.75
2023-02-15T18:51:02.206Z,102530.75
2023-02-15T18:53:06.210Z,102527.22
2023-02-15T18:55:17.755Z,102523.66
2023-02-15T18:57:19.846Z,102525.59
2023-02-15T18:59:22.907Z,102514.97
2023-02-15T19:01:26.285Z,102512.38
2023-02-15T19:03:27.997Z,102514.34
2023-02-15T19:05:30.534Z,102519.16
2023-02-15T19:07:34.096Z,102511.06
2023-02-15T19:09:35.718Z,102511.31
2023-02-15T19:11:37.681Z,102504.47
2023-02-15T19:13:39.219Z,102508.13
2023-02-15T19:15:41.497Z,102502.16
2023-02-15T19:17:44.884Z,102501.53
2023-02-15T19:19:47.139Z,102491.13
2023-02-15T19:21:50.163Z,102493.81
2023-02-15T19:23:55.380Z,102500.19
2023-02-15T19:25:57.071Z,102496.91
2023-02-15T19:27:59.689Z,102494.44
2023-02-15T19:30:03.945Z,102494.72
2023-02-15T19:32:05.720Z,102493.13
2023-02-15T19:34:14.827Z,102489.69
2023-02-15T19:36:18.104Z,102494.34
2023-02-15T19:38:23.641Z,102481.88
2023-02-15T19:40:27.418Z,102481.00
2023-02-15T19:42:29.704Z,102483.84
2023-02-15T19:44:31.320Z,102476.72
2023-02-15T19:46:33.013Z,102479.53
2023-02-15T19:48:34.720Z,102473.28
2023-02-15T19:50:37.806Z,102475.16
2023-02-15T19:52:40.430Z,102470.59
2023-02-15T19:54:44.603Z,102472.31
2023-02-15T19:56:47.526Z,102458.84
2023-02-15T19:58:50.683Z,102459.72
2023-02-15T20:00:52.444Z,102452.50
2023-02-15T20:02:55.106Z,102456.16
2023-02-15T20:04:57.046Z,102461.53
2023-02-15T20:07:02.981Z,102457.88
2023-02-15T20:09:05.365Z,102457.03
2023-02-15T20:11:09.333Z,102453.47
2023-02-15T20:13:14.416Z,102464.13
2023-02-15T20:15:21.790Z,102456.03
2023-02-15T20:17:23.575Z,102458.00
2023-02-15T20:19:25.227Z,102466.81
2023-02-15T20:21:26.891Z,102465.81
2023-02-15T20:23:33.825Z,102450.41
2023-02-15T20:25:35.585Z,102448.69
2023-02-15T20:27:37.226Z,102453.81
2023-02-15T20:29:39.714Z,102448.41
2023-02-15T20:31:42.565Z,102447.44
2023-02-15T20:33:44.337Z,102456.41
2023-02-15T20:35:47.011Z,102459.94
2023-02-15T20:37:50.700Z,102449.03
2023-02-15T20:39:53.709Z,102447.19
2023-02-15T20:41:55.639Z,102440.84
2023-02-15T20:43:57.235Z,102447.09
2023-02-15T20:45:59.060Z,102447.09
2023-02-15T20:48:00.814Z,102446.09
2023-02-15T20:50:02.369Z,102449.63
2023-02-15T20:52:14.674Z,102444.25
2023-02-15T20:54:18.293Z,102445.97
2023-02-15T20:56:24.106Z,102444.13
2023-02-15T20:58:27.933Z,102444.13
2023-02-15T21:00:32.000Z,102436.91
2023-02-15T21:02:33.756Z,102435.19
2023-02-15T21:04:35.385Z,102439.47
2023-02-15T21:06:37.244Z,102439.47
2023-02-15T21:08:38.823Z,102441.31
2023-02-15T21:10:41.077Z,102434.22
2023-02-15T21:12:45.190Z,102439.59
2023-02-15T21:14:47.263Z,102442.28
2023-02-15T21:16:50.481Z,102430.78
2023-02-15T21:18:52.098Z,102432.63
2023-02-15T21:20:57.036Z,102435.19
2023-02-15T21:23:02.874Z,102430.91
2023-02-15T21:25:05.241Z,102434.47
2023-02-15T21:27:07.527Z,102423.81
2023-02-15T21:29:15.924Z,102417.56
2023-02-15T21:31:19.717Z,102419.53
2023-02-15T21:33:21.662Z,102421.38
2023-02-15T21:35:23.345Z,102414.16
2023-02-15T21:37:32.075Z,102412.31
2023-02-15T21:39:36.055Z,102413.91
2023-02-15T21:41:37.749Z,102411.19
2023-02-15T21:43:39.560Z,102406.66
2023-02-15T21:45:42.917Z,102407.53
2023-02-15T21:47:44.532Z,102399.56
2023-02-15T21:49:46.079Z,102406.78
2023-02-15T21:51:47.901Z,102404.94
2023-02-15T21:53:49.531Z,102400.53
2023-02-15T21:55:52.575Z,102396.16
2023-02-15T21:57:54.166Z,102398.97
2023-02-15T21:59:55.861Z,102392.59
2023-02-15T22:01:59.024Z,102391.75
2023-02-15T22:04:00.793Z,102390.03
2023-02-15T22:06:02.980Z,102389.16
2023-02-15T22:08:11.211Z,102382.94
2023-02-15T22:10:13.461Z,102388.34
2023-02-15T22:12:16.903Z,102388.56
2023-02-15T22:14:35.934Z,102380.38
2023-02-15T22:16:37.558Z,102387.84
2023-02-15T22:18:40.933Z,102388.81
2023-02-15T22:20:42.601Z,102386.88
2023-02-15T22:22:44.380Z,102394.09
2023-02-15T22:24:46.005Z,102392.25
2023-02-15T22:26:47.684Z,102388.72
2023-02-15T22:28:49.626Z,102386.00
2023-02-15T22:30:52.314Z,102391.41
2023-02-15T22:32:55.398Z,102388.72
2023-02-15T22:34:58.504Z,102391.41
2023-02-15T22:37:00.380Z,102393.94
2023-02-15T22:39:02.035Z,102396.78
2023-02-15T22:41:04.821Z,102395.94
2023-02-15T22:43:13.613Z,102397.75
2023-02-15T22:45:18.746Z,102404.00
2023-02-15T22:47:22.650Z,102401.44
2023-02-15T22:49:24.612Z,102401.44
2023-02-15T22:51:29.698Z,102396.19
2023-02-15T22:53:31.440Z,102401.56
2023-02-15T22:55:37.412Z,102401.56
2023-02-15T22:57:39.100Z,102402.66
2023-02-15T22:59:40.766Z,102396.44
2023-02-15T23:01:42.819Z,102392.03
2023-02-15T23:03:44.785Z,102393.88
2023-02-15T23:05:46.993Z,102395.69
2023-02-15T23:07:50.921Z,102394.97
2023-02-15T23:09:52.789Z,102400.38
2023-02-15T23:11:54.645Z,102398.66
2023-02-15T23:13:56.430Z,102388.13
2023-02-15T23:16:01.036Z,102388.25
2023-02-15T23:18:16.407Z,102382.75
2023-02-15T23:20:18.154Z,102383.00
2023-02-15T23:22:19.754Z,102383.84
2023-02-15T23:24:24.368Z,102386.53
2023-02-15T23:26:28.128Z,102380.31
2023-02-15T23:28:31.962Z,102374.06
2023-02-15T23:30:34.479Z,102384.69
2023-02-15T23:32:36.184Z,102372.25
2023-02-15T23:34:38.242Z,102378.34
2023-02-15T23:36:39.944Z,102372.94
2023-02-15T23:38:41.472Z,102369.28
2023-02-15T23:40:48.577Z,102367.44
2023-02-15T23:42:50.161Z,102367.44
2023-02-15T23:44:51.894Z,102370.00
2023-02-15T23:46:53.808Z,102366.44
2023-02-15T23:48:56.566Z,102368.16
2023-02-15T23:50:59.110Z,102364.50
2023-02-15T23:53:00.720Z,102368.06
2023-02-15T23:55:02.313Z,102372.44